Time;durP1;ratioP1;P1;durP2;ratioP2;P2;SDS_P1;SDS_P2;PMS_P1;PMS_P2;Temp;Humidity;BMP_temperature;BMP_pressure;BME280_temperature;BME280_humidity;BME280_pressure;Samples;Min_cycle;Max_cycle;Signal;HPM_P1;HPM_P2
2022/03/05 00:00:43;;;;;;;17.77;13.20;;;;;;;;;;4975565;28;20054;-69
2022/03/05 00:03:47;;;;;;;19.85;13.48;;;;;;;;;;4975515;28;20494;-69
2022/03/05 00:06:51;;;;;;;16.70;12.98;;;;;;;;;;4975513;28;20038;-69
2022/03/05 00:09:56;;;;;;;20.92;13.93;;;;;;;;;;4975593;28;20046;-69
2022/03/05 00:13:01;;;;;;;20.42;15.18;;;;;;;;;;4963654;28;20050;-69
2022/03/05 00:16:05;;;;;;;21.75;15.20;;;;;;;;;;4974867;28;20065;-68
2022/03/05 00:19:10;;;;;;;25.00;15.77;;;;;;;;;;4975363;28;20053;-69
2022/03/05 00:22:14;;;;;;;19.75;15.18;;;;;;;;;;4975043;28;20058;-69
2022/03/05 00:25:24;;;;;;;20.77;16.30;;;;;;;;;;4963299;28;20045;-69
2022/03/05 00:28:28;;;;;;;21.75;15.52;;;;;;;;;;4975098;28;20053;-69
2022/03/05 00:31:33;;;;;;;19.67;15.45;;;;;;;;;;4974932;28;20045;-68
2022/03/05 00:34:37;;;;;;;22.88;16.33;;;;;;;;;;4975244;28;20049;-69
2022/03/05 00:37:42;;;;;;;23.05;16.30;;;;;;;;;;4974976;28;20061;-68
2022/03/05 00:40:46;;;;;;;22.50;16.65;;;;;;;;;;4961575;28;20053;-69
2022/03/05 00:43:50;;;;;;;18.75;15.43;;;;;;;;;;4975020;28;20418;-69
2022/03/05 00:46:55;;;;;;;18.15;14.73;;;;;;;;;;4974536;28;20045;-69
2022/03/05 00:50:00;;;;;;;20.30;15.93;;;;;;;;;;4974749;28;20045;-70
2022/03/05 00:53:05;;;;;;;20.10;15.18;;;;;;;;;;4974843;28;20050;-69
2022/03/05 00:56:09;;;;;;;20.15;15.18;;;;;;;;;;4974716;28;20054;-70
2022/03/05 00:59:13;;;;;;;22.83;16.40;;;;;;;;;;4974458;28;20387;-69
2022/03/05 01:02:18;;;;;;;19.48;15.15;;;;;;;;;;4962465;28;20208;-70
2022/03/05 01:05:22;;;;;;;18.40;15.30;;;;;;;;;;4974230;28;20042;-69
2022/03/05 01:08:26;;;;;;;20.95;15.05;;;;;;;;;;4974416;28;20065;-70
2022/03/05 01:11:31;;;;;;;21.17;15.75;;;;;;;;;;4974113;28;20049;-69
2022/03/05 01:14:35;;;;;;;17.02;14.80;;;;;;;;;;4973049;28;20394;-69
2022/03/05 01:17:41;;;;;;;20.50;15.18;;;;;;;;;;4974360;28;20048;-69
2022/03/05 01:20:45;;;;;;;22.00;15.90;;;;;;;;;;4973226;28;20042;-69
2022/03/05 01:23:49;;;;;;;19.50;16.08;;;;;;;;;;4973876;28;20049;-69
2022/03/05 01:26:54;;;;;;;22.52;15.43;;;;;;;;;;4973930;28;20042;-69
2022/03/05 01:29:58;;;;;;;22.25;16.50;;;;;;;;;;4973708;28;20045;-69
2022/03/05 01:33:03;;;;;;;18.48;14.77;;;;;;;;;;4973903;28;20049;-69
2022/03/05 01:36:07;;;;;;;22.63;16.27;;;;;;;;;;4973967;28;20049;-69
2022/03/05 01:39:12;;;;;;;21.75;15.55;;;;;;;;;;4973488;28;20058;-69
2022/03/05 01:42:24;;;;;;;19.40;15.50;;;;;;;;;;4973547;28;20058;-70
2022/03/05 01:45:28;;;;;;;;;;;;;;;;;;4974187;28;20049;-70
2022/03/05 01:48:32;;;;;;;25.23;17.33;;;;;;;;;;4973731;28;19917;-70
2022/03/05 01:51:37;;;;;;;26.20;17.13;;;;;;;;;;4973291;28;20046;-70
2022/03/05 01:54:42;;;;;;;22.38;16.00;;;;;;;;;;4973101;28;20124;-70
2022/03/05 01:57:46;;;;;;;23.40;16.17;;;;;;;;;;4973416;28;20042;-69
2022/03/05 02:00:51;;;;;;;18.38;14.30;;;;;;;;;;4973501;28;20054;-70
2022/03/05 02:03:56;;;;;;;19.95;14.27;;;;;;;;;;4961343;28;20045;-70
2022/03/05 02:07:00;;;;;;;17.20;14.18;;;;;;;;;;4973355;28;20042;-70
2022/03/05 02:10:06;;;;;;;16.95;12.50;;;;;;;;;;4972866;28;20077;-70
2022/03/05 02:13:11;;;;;;;12.40;9.40;;;;;;;;;;4973199;28;20042;-70
2022/03/05 02:16:15;;;;;;;13.77;10.40;;;;;;;;;;4972826;28;20051;-70
2022/03/05 02:19:20;;;;;;;16.00;9.98;;;;;;;;;;4973108;28;20490;-70
2022/03/05 02:22:25;;;;;;;13.00;9.88;;;;;;;;;;4972914;28;20403;-70
2022/03/05 02:25:29;;;;;;;12.27;8.77;;;;;;;;;;4973111;28;20039;-70
2022/03/05 02:28:34;;;;;;;10.98;9.02;;;;;;;;;;4972817;28;20039;-70
2022/03/05 02:31:38;;;;;;;10.90;8.70;;;;;;;;;;4972886;28;20043;-70
2022/03/05 02:34:42;;;;;;;11.55;8.40;;;;;;;;;;4972709;28;20119;-70
2022/03/05 02:37:46;;;;;;;9.00;7.40;;;;;;;;;;4972940;28;20039;-70
2022/03/05 02:40:51;;;;;;;9.82;7.45;;;;;;;;;;4960450;28;20046;-70
2022/03/05 02:43:57;;;;;;;11.98;7.70;;;;;;;;;;4960698;28;20487;-70
2022/03/05 02:47:01;;;;;;;9.20;6.95;;;;;;;;;;4972526;28;20398;-70
2022/03/05 02:50:06;;;;;;;10.57;6.30;;;;;;;;;;4972560;28;20042;-70
2022/03/05 02:53:10;;;;;;;6.65;5.05;;;;;;;;;;4972491;28;20375;-70
2022/03/05 02:56:14;;;;;;;7.97;5.55;;;;;;;;;;4972326;28;20376;-70
2022/03/05 02:59:18;;;;;;;7.35;5.60;;;;;;;;;;4971868;28;20043;-70
2022/03/05 03:02:23;;;;;;;8.18;5.60;;;;;;;;;;4972176;28;20047;-70
2022/03/05 03:05:27;;;;;;;6.05;4.35;;;;;;;;;;4971610;28;20039;-70
2022/03/05 03:08:32;;;;;;;3.88;3.17;;;;;;;;;;4960106;28;20038;-70
2022/03/05 03:11:36;;;;;;;3.67;2.67;;;;;;;;;;4972370;28;20376;-70
2022/03/05 03:14:40;;;;;;;4.63;3.25;;;;;;;;;;4972001;28;20046;-70
2022/03/05 03:17:49;;;;;;;3.13;2.50;;;;;;;;;;4971388;28;20035;-70
2022/03/05 03:20:53;;;;;;;3.42;2.45;;;;;;;;;;4971982;28;20507;-70
2022/03/05 03:23:58;;;;;;;2.28;1.80;;;;;;;;;;4971978;28;20039;-70
2022/03/05 03:27:02;;;;;;;2.03;1.60;;;;;;;;;;4972111;28;20034;-70
2022/03/05 03:30:08;;;;;;;1.90;1.45;;;;;;;;;;4971585;28;20039;-70
2022/03/05 03:33:12;;;;;;;1.63;1.23;;;;;;;;;;4972276;28;20039;-70
2022/03/05 03:36:17;;;;;;;1.45;1.20;;;;;;;;;;4972062;28;20043;-70
2022/03/05 03:39:21;;;;;;;0.95;0.85;;;;;;;;;;4972154;28;20035;-70
2022/03/05 03:42:26;;;;;;;1.17;1.00;;;;;;;;;;4971984;28;20046;-70
2022/03/05 03:45:31;;;;;;;0.90;0.70;;;;;;;;;;4972061;28;20038;-70
2022/03/05 03:48:35;;;;;;;0.50;0.50;;;;;;;;;;4971775;28;20038;-69
2022/03/05 03:51:39;;;;;;;0.90;0.70;;;;;;;;;;4972004;28;20047;-70
2022/03/05 03:54:44;;;;;;;1.02;0.80;;;;;;;;;;4972163;28;20372;-69
2022/03/05 03:57:49;;;;;;;1.73;0.77;;;;;;;;;;4971354;28;20491;-69
2022/03/05 04:00:53;;;;;;;0.80;0.60;;;;;;;;;;4971502;28;20034;-70
2022/03/05 04:03:57;;;;;;;0.90;0.80;;;;;;;;;;4971881;28;20039;-70
2022/03/05 04:10:24;;;;;;;0.43;0.43;;;;;;;;;;4971330;28;20047;-70
2022/03/05 04:13:29;;;;;;;0.70;0.60;;;;;;;;;;4971295;28;20039;-70
2022/03/05 04:16:36;;;;;;;0.77;0.50;;;;;;;;;;4974101;28;20050;-70
2022/03/05 04:19:41;;;;;;;0.50;0.50;;;;;;;;;;4963055;28;20035;-70
2022/03/05 04:22:45;;;;;;;0.82;0.60;;;;;;;;;;4963100;28;20528;-70
2022/03/05 04:25:49;;;;;;;0.65;0.60;;;;;;;;;;4962993;28;20475;-70
2022/03/05 04:28:53;;;;;;;0.65;0.57;;;;;;;;;;4975284;28;20042;-69
2022/03/05 04:31:58;;;;;;;0.93;0.55;;;;;;;;;;4963099;28;20038;-69
2022/03/05 04:35:02;;;;;;;0.70;0.50;;;;;;;;;;4975115;28;20039;-69
2022/03/05 04:38:07;;;;;;;0.60;0.60;;;;;;;;;;4975047;28;20035;-69
2022/03/05 04:41:11;;;;;;;0.68;0.52;;;;;;;;;;4974895;28;20184;-69
2022/03/05 04:44:16;;;;;;;0.40;0.40;;;;;;;;;;4975054;28;20051;-69
2022/03/05 04:47:20;;;;;;;1.20;0.57;;;;;;;;;;4974729;28;20038;-69
2022/03/05 04:50:24;;;;;;;0.40;0.30;;;;;;;;;;4975053;28;20047;-69
2022/03/05 04:53:28;;;;;;;0.47;0.43;;;;;;;;;;4974479;28;20031;-69
2022/03/05 04:56:33;;;;;;;0.30;0.30;;;;;;;;;;4974243;28;20035;-69
2022/03/05 04:59:37;;;;;;;0.43;0.40;;;;;;;;;;4974224;28;20035;-69
2022/03/05 05:02:42;;;;;;;0.45;0.40;;;;;;;;;;4974430;28;20392;-69
2022/03/05 05:05:47;;;;;;;0.30;0.30;;;;;;;;;;4974218;28;20561;-69
2022/03/05 05:08:51;;;;;;;0.55;0.43;;;;;;;;;;4974208;28;20050;-69
2022/03/05 05:11:56;;;;;;;0.82;0.50;;;;;;;;;;4974235;28;20496;-69
2022/03/05 05:15:00;;;;;;;0.50;0.40;;;;;;;;;;4974194;28;20623;-69
2022/03/05 05:18:04;;;;;;;3.53;0.40;;;;;;;;;;4974213;28;20035;-70
2022/03/05 05:21:08;;;;;;;0.30;0.30;;;;;;;;;;4974321;28;20047;-69
2022/03/05 05:24:13;;;;;;;0.35;0.35;;;;;;;;;;4974134;28;20046;-69
2022/03/05 05:27:17;;;;;;;0.20;0.20;;;;;;;;;;4973134;28;20038;-70
2022/03/05 05:30:23;;;;;;;0.57;0.50;;;;;;;;;;4973995;28;20047;-69
2022/03/05 05:33:27;;;;;;;0.40;0.40;;;;;;;;;;4973896;28;20488;-70
2022/03/05 05:36:31;;;;;;;0.40;0.40;;;;;;;;;;4973635;28;20031;-69
2022/03/05 05:39:36;;;;;;;1.30;0.40;;;;;;;;;;4973435;28;20043;-68
2022/03/05 05:42:42;;;;;;;0.40;0.40;;;;;;;;;;4973538;28;20047;-68
2022/03/05 05:45:46;;;;;;;0.20;0.20;;;;;;;;;;4973579;28;20038;-68
2022/03/05 05:48:50;;;;;;;0.30;0.30;;;;;;;;;;4973621;28;20081;-68
2022/03/05 05:51:55;;;;;;;0.52;0.30;;;;;;;;;;4972946;28;20039;-69
2022/03/05 05:54:59;;;;;;;0.38;0.38;;;;;;;;;;4973616;28;20039;-68
2022/03/05 05:58:04;;;;;;;0.30;0.30;;;;;;;;;;4973448;28;20046;-69
2022/03/05 06:01:08;;;;;;;0.30;0.30;;;;;;;;;;4973166;28;20042;-69
2022/03/05 06:04:13;;;;;;;0.50;0.40;;;;;;;;;;4973268;28;20046;-68
2022/03/05 06:07:18;;;;;;;0.47;0.47;;;;;;;;;;4972807;28;20035;-68
2022/03/05 06:10:22;;;;;;;0.77;0.50;;;;;;;;;;4972899;28;20038;-68
2022/03/05 06:13:26;;;;;;;7.53;2.90;;;;;;;;;;4973198;28;20380;-70
2022/03/05 06:16:31;;;;;;;1.48;0.90;;;;;;;;;;4972769;28;20046;-70
2022/03/05 06:19:35;;;;;;;7.22;2.22;;;;;;;;;;4972577;28;20372;-69
2022/03/05 06:22:39;;;;;;;0.65;0.55;;;;;;;;;;4972975;28;20051;-70
2022/03/05 06:25:44;;;;;;;0.98;0.70;;;;;;;;;;4972902;28;20483;-70
2022/03/05 06:28:48;;;;;;;0.52;0.50;;;;;;;;;;4972826;28;20047;-70
2022/03/05 06:31:54;;;;;;;0.85;0.60;;;;;;;;;;4972388;28;20039;-70
2022/03/05 06:34:58;;;;;;;0.82;0.80;;;;;;;;;;4972958;28;20380;-70
2022/03/05 06:38:02;;;;;;;4.70;0.80;;;;;;;;;;4972638;28;20039;-70
2022/03/05 06:41:06;;;;;;;0.77;0.70;;;;;;;;;;4972143;28;20038;-70
2022/03/05 06:44:11;;;;;;;1.15;0.70;;;;;;;;;;4972470;28;20383;-67
2022/03/05 06:47:15;;;;;;;1.88;0.65;;;;;;;;;;4972411;28;20035;-68
2022/03/05 06:50:21;;;;;;;1.00;0.90;;;;;;;;;;4972814;28;20038;-66
2022/03/05 06:53:29;;;;;;;1.27;0.80;;;;;;;;;;4972175;28;20038;-66
2022/03/05 06:56:33;;;;;;;1.05;0.93;;;;;;;;;;4972998;28;20046;-67
2022/03/05 06:59:38;;;;;;;0.90;0.70;;;;;;;;;;4972983;28;20047;-67
2022/03/05 07:02:43;;;;;;;1.10;0.80;;;;;;;;;;4972341;28;20392;-66
2022/03/05 07:05:48;;;;;;;1.10;0.80;;;;;;;;;;4960988;28;20043;-66
2022/03/05 07:08:54;;;;;;;1.05;0.77;;;;;;;;;;4960759;28;20039;-65
2022/03/05 07:11:59;;;;;;;1.00;0.88;;;;;;;;;;4960945;28;20047;-67
2022/03/05 07:15:03;;;;;;;1.05;0.90;;;;;;;;;;4972435;28;20042;-67
2022/03/05 07:18:08;;;;;;;0.73;0.70;;;;;;;;;;4972746;28;20467;-66
2022/03/05 07:21:12;;;;;;;0.90;0.77;;;;;;;;;;4973634;28;20482;-68
2022/03/05 07:24:17;;;;;;;1.52;1.20;;;;;;;;;;4973808;28;20047;-65
2022/03/05 07:27:21;;;;;;;2.00;1.20;;;;;;;;;;4972455;28;20039;-66
2022/03/05 07:30:27;;;;;;;1.55;1.20;;;;;;;;;;4972245;28;20380;-67
2022/03/05 07:33:31;;;;;;;1.60;0.93;;;;;;;;;;4972141;28;20356;-67
2022/03/05 07:36:35;;;;;;;2.13;1.20;;;;;;;;;;4973581;28;20035;-68
2022/03/05 07:39:40;;;;;;;1.48;1.00;;;;;;;;;;4973667;28;20035;-67
2022/03/05 07:42:45;;;;;;;1.48;1.08;;;;;;;;;;4972922;28;20502;-67
2022/03/05 07:45:50;;;;;;;2.08;1.52;;;;;;;;;;4973239;28;20051;-68
2022/03/05 07:48:56;;;;;;;1.67;1.30;;;;;;;;;;4973496;28;20043;-69
2022/03/05 07:52:00;;;;;;;1.63;1.20;;;;;;;;;;4965978;28;20375;-68
2022/03/05 07:55:06;;;;;;;2.30;1.40;;;;;;;;;;4978516;28;20042;-68
2022/03/05 07:58:10;;;;;;;1.90;1.38;;;;;;;;;;4976964;28;20035;-67
2022/03/05 08:01:15;;;;;;;2.10;1.60;;;;;;;;;;4976882;28;20047;-68
2022/03/05 08:04:20;;;;;;;1.98;1.50;;;;;;;;;;4965501;28;20054;-67
2022/03/05 08:07:26;;;;;;;2.42;1.42;;;;;;;;;;4964509;28;20051;-67
2022/03/05 08:10:30;;;;;;;1.83;1.70;;;;;;;;;;4975982;28;20047;-68
2022/03/05 08:13:36;;;;;;;2.80;1.55;;;;;;;;;;4976695;28;20035;-70
2022/03/05 08:16:42;;;;;;;1.98;1.58;;;;;;;;;;4977383;28;20043;-69
2022/03/05 08:19:46;;;;;;;6.38;1.42;;;;;;;;;;4976804;28;20043;-68
2022/03/05 08:22:52;;;;;;;2.78;1.65;;;;;;;;;;4976588;28;20051;-68
2022/03/05 08:25:59;;;;;;;2.03;1.60;;;;;;;;;;4977204;28;20356;-69
2022/03/05 08:29:03;;;;;;;2.20;1.52;;;;;;;;;;4976021;28;20039;-67
2022/03/05 08:32:07;;;;;;;2.05;1.60;;;;;;;;;;4976757;28;20042;-72
2022/03/05 08:35:12;;;;;;;2.22;1.50;;;;;;;;;;4976802;28;20042;-68
2022/03/05 08:38:18;;;;;;;2.13;1.48;;;;;;;;;;4975029;28;20039;-69
2022/03/05 08:41:24;;;;;;;5.05;3.22;;;;;;;;;;4974639;28;20039;-68
2022/03/05 08:44:28;;;;;;;3.38;2.28;;;;;;;;;;4975527;28;20051;-67
2022/03/05 08:47:33;;;;;;;2.67;1.40;;;;;;;;;;4974707;28;20491;-70
2022/03/05 08:50:37;;;;;;;3.20;2.00;;;;;;;;;;4974954;28;20039;-68
2022/03/05 08:53:42;;;;;;;4.32;1.90;;;;;;;;;;4975679;28;20134;-67
2022/03/05 08:56:48;;;;;;;2.80;2.08;;;;;;;;;;4975984;28;20491;-67
2022/03/05 08:59:55;;;;;;;2.55;1.80;;;;;;;;;;4975631;28;20483;-68
2022/03/05 09:03:00;;;;;;;4.50;2.63;;;;;;;;;;4974100;28;20047;-69
2022/03/05 09:06:05;;;;;;;3.55;2.08;;;;;;;;;;4975331;28;20039;-66
2022/03/05 09:09:09;;;;;;;2.88;1.52;;;;;;;;;;4975460;28;20047;-67
2022/03/05 09:12:15;;;;;;;3.08;2.28;;;;;;;;;;4975258;28;20039;-66
2022/03/05 09:15:19;;;;;;;3.60;2.42;;;;;;;;;;4974568;28;20174;-67
2022/03/05 09:18:23;;;;;;;3.80;2.35;;;;;;;;;;4976148;28;20027;-67
2022/03/05 09:21:28;;;;;;;3.53;2.30;;;;;;;;;;4975222;28;20046;-67
2022/03/05 09:24:34;;;;;;;3.58;2.55;;;;;;;;;;4975865;28;20054;-68
2022/03/05 09:27:45;;;;;;;2.90;2.20;;;;;;;;;;4975445;28;20042;-69
2022/03/05 09:30:50;;;;;;;3.30;2.60;;;;;;;;;;4978444;28;20043;-71
2022/03/05 09:33:55;;;;;;;3.35;2.28;;;;;;;;;;4977410;28;20043;-70
2022/03/05 09:37:02;;;;;;;2.97;1.98;;;;;;;;;;4975958;28;20368;-70
2022/03/05 09:40:09;;;;;;;6.32;3.10;;;;;;;;;;4975442;28;20476;-67
2022/03/05 09:43:13;;;;;;;3.35;2.08;;;;;;;;;;4974729;28;20051;-70
2022/03/05 09:46:19;;;;;;;2.85;1.88;;;;;;;;;;4975533;28;20376;-67
2022/03/05 09:49:26;;;;;;;3.22;2.10;;;;;;;;;;4974660;28;20475;-70
2022/03/05 09:52:32;;;;;;;2.97;1.88;;;;;;;;;;4975455;28;20039;-68
2022/03/05 09:55:38;;;;;;;3.33;2.60;;;;;;;;;;4973832;28;20043;-68
2022/03/05 09:58:42;;;;;;;2.80;2.10;;;;;;;;;;4975841;28;20038;-67
2022/03/05 10:01:47;;;;;;;2.88;2.30;;;;;;;;;;4974525;28;20038;-69
2022/03/05 10:05:11;;;;;;;2.67;2.10;;;;;;;;;;4975455;28;20047;-69
2022/03/05 10:08:17;;;;;;;5.30;2.95;;;;;;;;;;4976321;28;20510;-68
2022/03/05 10:11:40;;;;;;;9.40;3.45;;;;;;;;;;4975207;28;20051;-67
2022/03/05 10:15:02;;;;;;;3.85;2.28;;;;;;;;;;4962131;28;20050;-69
2022/03/05 10:18:07;;;;;;;3.60;2.10;;;;;;;;;;4974840;28;20042;-68
2022/03/05 10:21:12;;;;;;;4.50;3.08;;;;;;;;;;4975584;28;20046;-69
2022/03/05 10:24:17;;;;;;;2.65;2.13;;;;;;;;;;4975785;28;20380;-69
2022/03/05 10:27:22;;;;;;;8.40;4.38;;;;;;;;;;4954061;28;20042;-70
2022/03/05 10:30:28;;;;;;;6.80;4.75;;;;;;;;;;4953830;28;20051;-71
2022/03/05 10:33:37;;;;;;;5.22;3.83;;;;;;;;;;4976584;28;20471;-70
2022/03/05 10:36:56;;;;;;;5.75;3.05;;;;;;;;;;4975225;28;20043;-67
2022/03/05 10:40:00;;;;;;;8.20;3.97;;;;;;;;;;4975102;28;20392;-68
2022/03/05 10:43:06;;;;;;;5.57;3.60;;;;;;;;;;4962109;28;20054;-69
2022/03/05 10:46:10;;;;;;;6.75;5.38;;;;;;;;;;4974653;28;20043;-68
2022/03/05 10:49:17;;;;;;;9.77;7.22;;;;;;;;;;4963445;28;20042;-67
2022/03/05 10:52:21;;;;;;;8.95;5.30;;;;;;;;;;4962166;28;20047;-68
2022/03/05 10:55:27;;;;;;;2.90;2.33;;;;;;;;;;4975101;28;20138;-68
2022/03/05 10:58:32;;;;;;;5.13;4.05;;;;;;;;;;4963427;28;20031;-67
2022/03/05 11:01:41;;;;;;;4.18;2.63;;;;;;;;;;4974141;28;20043;-66
2022/03/05 11:04:47;;;;;;;2.83;2.33;;;;;;;;;;4974630;28;20043;-69
2022/03/05 11:07:53;;;;;;;5.72;2.65;;;;;;;;;;4974140;28;20027;-68
2022/03/05 11:10:57;;;;;;;6.85;4.95;;;;;;;;;;4961943;28;20042;-69
2022/03/05 11:14:06;;;;;;;7.20;4.22;;;;;;;;;;4962377;28;20043;-67
2022/03/05 11:17:16;;;;;;;4.10;3.30;;;;;;;;;;4974216;28;20415;-67
2022/03/05 11:20:21;;;;;;;5.90;3.40;;;;;;;;;;4973653;28;20050;-68
2022/03/05 11:23:27;;;;;;;5.15;4.07;;;;;;;;;;4972298;28;20051;-66
2022/03/05 11:26:32;;;;;;;3.83;2.85;;;;;;;;;;4961126;28;20039;-67
2022/03/05 11:29:52;;;;;;;5.60;4.57;;;;;;;;;;4973973;28;20043;-68
2022/03/05 11:32:57;;;;;;;5.32;4.35;;;;;;;;;;4961531;28;20043;-68
2022/03/05 11:36:08;;;;;;;7.10;5.80;;;;;;;;;;4974047;28;20195;-69
2022/03/05 11:39:17;;;;;;;5.20;3.88;;;;;;;;;;4973515;28;20039;-67
2022/03/05 11:42:35;;;;;;;3.92;3.53;;;;;;;;;;4961631;28;20047;-68
2022/03/05 11:45:46;;;;;;;4.78;3.60;;;;;;;;;;4951365;28;20043;-67
2022/03/05 11:49:05;;;;;;;4.20;3.55;;;;;;;;;;4973891;28;20027;-67
2022/03/05 11:52:10;;;;;;;11.50;8.25;;;;;;;;;;4973672;28;20042;-66
2022/03/05 11:55:19;;;;;;;4.05;2.58;;;;;;;;;;4973771;28;20034;-67
2022/03/05 11:58:29;;;;;;;2.92;2.60;;;;;;;;;;4973554;28;20479;-67
2022/03/05 12:01:42;;;;;;;2.78;2.40;;;;;;;;;;4973239;28;20499;-67
2022/03/05 12:04:49;;;;;;;4.25;3.85;;;;;;;;;;4962200;28;20055;-68
2022/03/05 12:07:54;;;;;;;4.82;3.40;;;;;;;;;;4961514;28;20047;-68
2022/03/05 12:11:32;;;;;;;4.28;3.30;;;;;;;;;;4973464;28;20043;-70
2022/03/05 12:14:55;;;;;;;3.38;2.65;;;;;;;;;;4961671;28;20039;-68
2022/03/05 12:18:01;;;;;;;9.10;3.83;;;;;;;;;;4960029;28;20471;-68
2022/03/05 12:21:05;;;;;;;5.40;4.28;;;;;;;;;;4972038;28;20039;-68
2022/03/05 12:24:10;;;;;;;3.65;2.83;;;;;;;;;;4959850;28;20059;-66
2022/03/05 12:27:16;;;;;;;4.43;3.00;;;;;;;;;;4972629;28;20043;-67
2022/03/05 12:30:24;;;;;;;3.22;2.30;;;;;;;;;;4972382;28;20076;-69
2022/03/05 12:33:29;;;;;;;3.17;2.58;;;;;;;;;;4972063;28;20031;-68
2022/03/05 12:36:34;;;;;;;4.55;2.75;;;;;;;;;;4973210;28;20510;-69
2022/03/05 12:39:43;;;;;;;17.77;9.48;;;;;;;;;;4975614;28;20043;-68
2022/03/05 12:42:49;;;;;;;17.95;9.15;;;;;;;;;;4975853;28;20399;-66
2022/03/05 12:45:55;;;;;;;9.60;5.05;;;;;;;;;;4963601;28;20047;-68
2022/03/05 12:49:06;;;;;;;6.00;4.25;;;;;;;;;;4975255;28;20035;-68
2022/03/05 12:52:17;;;;;;;12.38;7.82;;;;;;;;;;4951879;28;20042;-68
2022/03/05 12:55:21;;;;;;;4.43;3.17;;;;;;;;;;4974966;28;20192;-68
2022/03/05 12:58:28;;;;;;;5.78;4.05;;;;;;;;;;4963357;28;20035;-68
2022/03/05 13:01:32;;;;;;;4.82;3.25;;;;;;;;;;4974351;28;20042;-68
2022/03/05 13:04:37;;;;;;;7.60;5.20;;;;;;;;;;4974750;28;20499;-67
2022/03/05 13:07:42;;;;;;;6.63;5.40;;;;;;;;;;4974605;28;20039;-66
2022/03/05 13:10:47;;;;;;;4.70;3.95;;;;;;;;;;4962348;28;20046;-66
2022/03/05 13:13:53;;;;;;;6.25;4.55;;;;;;;;;;4974488;28;20035;-69
2022/03/05 13:16:57;;;;;;;10.02;5.50;;;;;;;;;;4973165;28;20491;-67
2022/03/05 13:20:03;;;;;;;8.27;4.80;;;;;;;;;;4973658;28;20042;-67
2022/03/05 13:23:08;;;;;;;10.18;6.97;;;;;;;;;;4972903;28;20047;-67
2022/03/05 13:26:12;;;;;;;8.95;7.30;;;;;;;;;;4974158;28;20041;-67
2022/03/05 13:29:21;;;;;;;7.97;5.85;;;;;;;;;;4974372;28;20042;-66
2022/03/05 13:32:27;;;;;;;8.23;6.05;;;;;;;;;;4961263;28;20035;-67
2022/03/05 13:35:40;;;;;;;7.53;6.03;;;;;;;;;;4974604;28;20051;-66
2022/03/05 13:38:46;;;;;;;21.23;12.30;;;;;;;;;;4974009;28;20046;-66
2022/03/05 13:41:57;;;;;;;10.65;9.07;;;;;;;;;;4974023;28;20414;-68
2022/03/05 13:45:04;;;;;;;10.80;8.38;;;;;;;;;;4974907;28;20050;-69
2022/03/05 13:48:09;;;;;;;7.85;5.60;;;;;;;;;;4973501;28;20035;-66
2022/03/05 13:51:18;;;;;;;7.93;5.95;;;;;;;;;;4962225;28;20042;-66
2022/03/05 13:54:39;;;;;;;10.20;7.00;;;;;;;;;;4973934;28;20034;-67
2022/03/05 13:57:48;;;;;;;7.95;6.40;;;;;;;;;;4961565;28;20069;-67
2022/03/05 14:00:52;;;;;;;9.20;6.60;;;;;;;;;;4973546;28;20046;-67
2022/03/05 14:04:05;;;;;;;12.25;8.05;;;;;;;;;;4950469;28;20058;-67
2022/03/05 14:07:12;;;;;;;8.75;6.50;;;;;;;;;;4973718;28;20142;-67
2022/03/05 14:10:19;;;;;;;11.05;7.75;;;;;;;;;;4973134;28;20380;-68
2022/03/05 14:13:26;;;;;;;26.35;16.88;;;;;;;;;;4973764;28;20053;-67
2022/03/05 14:16:34;;;;;;;8.60;6.28;;;;;;;;;;4950155;28;20054;-68
2022/03/05 14:19:40;;;;;;;14.75;9.15;;;;;;;;;;4973375;28;20046;-66
2022/03/05 14:22:46;;;;;;;12.20;8.80;;;;;;;;;;4973424;28;20054;-67
2022/03/05 14:25:53;;;;;;;12.10;9.13;;;;;;;;;;4973320;28;20061;-67
2022/03/05 14:28:58;;;;;;;11.63;8.30;;;;;;;;;;4973467;28;20049;-67
2022/03/05 14:32:03;;;;;;;15.63;9.98;;;;;;;;;;4973216;28;20047;-66
2022/03/05 14:35:10;;;;;;;10.10;7.00;;;;;;;;;;4973340;28;20059;-67
2022/03/05 14:38:16;;;;;;;12.82;6.90;;;;;;;;;;4973251;28;20088;-67
2022/03/05 14:41:20;;;;;;;10.60;7.72;;;;;;;;;;4973092;28;20059;-68
2022/03/05 14:44:25;;;;;;;9.57;7.35;;;;;;;;;;4973059;28;20059;-67
2022/03/05 14:47:30;;;;;;;10.70;7.97;;;;;;;;;;4972997;28;20042;-68
2022/03/05 14:50:34;;;;;;;12.05;8.63;;;;;;;;;;4972859;28;20206;-67
2022/03/05 14:53:38;;;;;;;10.30;8.52;;;;;;;;;;4972788;28;20050;-67
2022/03/05 14:56:42;;;;;;;19.67;13.85;;;;;;;;;;4949932;28;20043;-67
2022/03/05 14:59:48;;;;;;;14.43;10.20;;;;;;;;;;4972137;28;20506;-67
2022/03/05 15:02:52;;;;;;;11.88;8.55;;;;;;;;;;4972467;28;20046;-67
2022/03/05 15:05:57;;;;;;;7.63;6.45;;;;;;;;;;4949796;28;20042;-67
2022/03/05 15:09:01;;;;;;;11.35;7.85;;;;;;;;;;4960772;28;20039;-67
2022/03/05 15:12:06;;;;;;;10.70;7.38;;;;;;;;;;4972686;28;20050;-67
2022/03/05 15:15:11;;;;;;;9.70;6.75;;;;;;;;;;4972275;28;20050;-67
2022/03/05 15:18:15;;;;;;;8.77;6.93;;;;;;;;;;4972513;28;20043;-67
2022/03/05 15:21:21;;;;;;;9.38;6.97;;;;;;;;;;4972586;28;20050;-67
2022/03/05 15:24:25;;;;;;;11.15;6.90;;;;;;;;;;4960546;28;20054;-68
2022/03/05 15:27:30;;;;;;;8.77;6.30;;;;;;;;;;4972151;28;20050;-67
2022/03/05 15:30:34;;;;;;;10.15;6.78;;;;;;;;;;4972282;28;20038;-67
2022/03/05 15:33:39;;;;;;;8.82;6.72;;;;;;;;;;4972696;28;20038;-67
2022/03/05 15:36:43;;;;;;;13.02;8.88;;;;;;;;;;4972295;28;20039;-67
2022/03/05 15:39:49;;;;;;;11.07;8.35;;;;;;;;;;4972220;28;20514;-69
2022/03/05 15:42:54;;;;;;;11.55;7.10;;;;;;;;;;4960570;28;20045;-68
2022/03/05 15:45:58;;;;;;;11.00;8.15;;;;;;;;;;4960174;28;20063;-66
2022/03/05 15:49:07;;;;;;;8.82;6.70;;;;;;;;;;4971872;28;20031;-67
2022/03/05 15:52:11;;;;;;;12.80;7.93;;;;;;;;;;4972104;28;20388;-67
2022/03/05 15:55:16;;;;;;;11.52;8.88;;;;;;;;;;4972270;28;20050;-67
2022/03/05 15:58:20;;;;;;;9.13;7.40;;;;;;;;;;4960438;28;20336;-67
2022/03/05 16:01:24;;;;;;;12.60;8.95;;;;;;;;;;4971714;28;20408;-67
2022/03/05 16:04:29;;;;;;;9.30;7.00;;;;;;;;;;4948787;28;20061;-67
2022/03/05 16:07:33;;;;;;;9.55;6.88;;;;;;;;;;4971378;28;20564;-67
2022/03/05 16:10:38;;;;;;;10.45;8.45;;;;;;;;;;4971575;28;20494;-66
2022/03/05 16:13:42;;;;;;;10.30;6.97;;;;;;;;;;4975275;28;20042;-67
2022/03/05 16:16:48;;;;;;;10.20;6.95;;;;;;;;;;4963372;28;20047;-66
2022/03/05 16:19:52;;;;;;;10.32;6.63;;;;;;;;;;4975571;28;20041;-67
2022/03/05 16:22:57;;;;;;;10.85;6.22;;;;;;;;;;4975474;28;20058;-67
2022/03/05 16:26:01;;;;;;;15.35;8.85;;;;;;;;;;4975253;28;20051;-68
2022/03/05 16:29:05;;;;;;;12.65;8.73;;;;;;;;;;4975024;28;20039;-66
2022/03/05 16:32:10;;;;;;;13.07;10.10;;;;;;;;;;4975055;28;20406;-67
2022/03/05 16:35:16;;;;;;;11.13;7.57;;;;;;;;;;4974971;28;20061;-67
2022/03/05 16:38:22;;;;;;;12.75;9.15;;;;;;;;;;4974852;28;20053;-68
2022/03/05 16:41:26;;;;;;;12.63;8.57;;;;;;;;;;4975174;28;20042;-67
2022/03/05 16:44:32;;;;;;;12.02;8.80;;;;;;;;;;4974539;28;20077;-70
2022/03/05 16:47:39;;;;;;;11.95;8.40;;;;;;;;;;4963663;28;20042;-69
2022/03/05 16:50:43;;;;;;;11.13;7.60;;;;;;;;;;4974999;28;20042;-69
2022/03/05 16:53:48;;;;;;;11.00;8.18;;;;;;;;;;4975299;28;20513;-69
2022/03/05 16:56:53;;;;;;;14.75;10.60;;;;;;;;;;4975150;28;20047;-68
2022/03/05 16:59:57;;;;;;;16.00;10.20;;;;;;;;;;4963045;28;20458;-69
2022/03/05 17:03:02;;;;;;;23.08;15.20;;;;;;;;;;4975143;28;20050;-68
2022/03/05 17:06:06;;;;;;;13.32;10.10;;;;;;;;;;4975620;28;20062;-68
2022/03/05 17:09:11;;;;;;;13.48;10.13;;;;;;;;;;4974512;28;20410;-68
2022/03/05 17:12:16;;;;;;;13.13;8.93;;;;;;;;;;4963812;28;20050;-68
2022/03/05 17:15:24;;;;;;;17.67;11.98;;;;;;;;;;4952742;28;20078;-70
2022/03/05 17:18:32;;;;;;;11.48;8.18;;;;;;;;;;4974687;28;20501;-69
2022/03/05 17:21:39;;;;;;;21.27;11.48;;;;;;;;;;4974515;28;20372;-69
2022/03/05 17:24:43;;;;;;;25.40;17.55;;;;;;;;;;4973532;28;20050;-70
2022/03/05 17:27:48;;;;;;;17.25;12.13;;;;;;;;;;4974031;28;20391;-70
2022/03/05 17:30:53;;;;;;;26.45;15.50;;;;;;;;;;4972641;28;20058;-70
2022/03/05 17:33:57;;;;;;;25.02;14.70;;;;;;;;;;4973936;28;20042;-71
2022/03/05 17:37:01;;;;;;;16.27;10.93;;;;;;;;;;4973710;28;20119;-69
2022/03/05 17:40:07;;;;;;;21.50;14.75;;;;;;;;;;4961875;28;20057;-71
2022/03/05 17:43:11;;;;;;;19.55;14.05;;;;;;;;;;4973976;28;20061;-71
2022/03/05 17:46:16;;;;;;;25.98;14.63;;;;;;;;;;4973969;28;20046;-70
2022/03/05 17:49:23;;;;;;;19.55;12.40;;;;;;;;;;4974013;28;20395;-71
2022/03/05 17:52:29;;;;;;;22.85;15.57;;;;;;;;;;4973474;28;20046;-69
2022/03/05 17:55:33;;;;;;;19.63;14.02;;;;;;;;;;4973506;28;20050;-69
2022/03/05 17:58:38;;;;;;;17.23;11.98;;;;;;;;;;4973019;28;20494;-70
2022/03/05 18:01:45;;;;;;;21.92;15.60;;;;;;;;;;4973329;28;20045;-67
2022/03/05 18:04:49;;;;;;;21.52;12.80;;;;;;;;;;4972708;28;20054;-69
2022/03/05 18:07:54;;;;;;;21.50;19.02;;;;;;;;;;4972701;28;20054;-68
2022/03/05 18:10:59;;;;;;;20.45;14.60;;;;;;;;;;4973348;28;20045;-69
2022/03/05 18:14:04;;;;;;;15.32;10.18;;;;;;;;;;4961485;28;20498;-70
2022/03/05 18:17:09;;;;;;;15.27;8.60;;;;;;;;;;4953802;29;20058;-70
2022/03/05 18:20:14;;;;;;;16.50;10.20;;;;;;;;;;4941970;29;20050;-70
2022/03/05 18:23:19;;;;;;;11.95;8.50;;;;;;;;;;4954038;29;20046;-69
2022/03/05 18:26:23;;;;;;;12.93;8.55;;;;;;;;;;4942029;29;20062;-72